CheckWX is a tool to help pilots better visualize weather data.  It is not intended as a substitute for an official pre-flight weather briefing.

16:17:10 UTC

KMKE TAF
General Mitchell International Airport
Milwaukee, Wisconsin, USA
KMKE 191501Z 1915/2018 27005KT P6SM OVC014 FM191800 25004KT P6SM OVC017 FM200600 27004KT P6SM OVC009 FM201300 25003KT P6SM BKN007

Nov-19@
15:00 UTC

Nov-19 @ 15:00 UTC

Nov-19@
18:00 UTC

Nov-19 @ 18:00 UTC

KMKE 191501Z 1915/2018 27005KT P6SM OVC014
Wind
  • 270° at 5 KTS
Cloud Levels
  • Overcast at 1,400' AGL

Nov-19@
18:00 UTC

Nov-19 @ 18:00 UTC

Nov-20@
06:00 UTC

Nov-20 @ 06:00 UTC

FM191800 25004KT P6SM OVC017

From

From Standard forecast or significant change

Wind
  • 250° at 4 KTS
Cloud Levels
  • Overcast at 1,700' AGL

Nov-20@
06:00 UTC

Nov-20 @ 06:00 UTC

Nov-20@
13:00 UTC

Nov-20 @ 13:00 UTC

FM200600 27004KT P6SM OVC009

From

From Standard forecast or significant change

Wind
  • 270° at 4 KTS
Cloud Levels
  • Overcast at 900' AGL

Nov-20@
13:00 UTC

Nov-20 @ 13:00 UTC

Nov-20@
18:00 UTC

Nov-20 @ 18:00 UTC

FM201300 25003KT P6SM BKN007

From

From Standard forecast or significant change

Wind
  • 250° at 3 KTS
Cloud Levels
  • Broken at 700' AGL